sensor_id;sensor_type;location;lat;lon;timestamp;P1;durP1;ratioP1;P2;durP2;ratioP2
1370;SDS011;14306;49.942;11.570;2022-12-07T00:01:29;14.30;;;7.40;;
1370;SDS011;14306;49.942;11.570;2022-12-07T00:04:00;11.10;;;6.70;;
1370;SDS011;14306;49.942;11.570;2022-12-07T00:06:31;9.43;;;6.90;;
1370;SDS011;14306;49.942;11.570;2022-12-07T00:09:00;6.20;;;4.70;;
1370;SDS011;14306;49.942;11.570;2022-12-07T00:11:28;6.87;;;4.73;;
1370;SDS011;14306;49.942;11.570;2022-12-07T00:13:57;7.20;;;5.30;;
1370;SDS011;14306;49.942;11.570;2022-12-07T00:16:28;8.10;;;6.13;;
1370;SDS011;14306;49.942;11.570;2022-12-07T00:18:59;17.73;;;4.80;;
1370;SDS011;14306;49.942;11.570;2022-12-07T00:21:29;6.80;;;4.70;;
1370;SDS011;14306;49.942;11.570;2022-12-07T00:23:59;10.40;;;5.00;;
1370;SDS011;14306;49.942;11.570;2022-12-07T00:26:28;8.40;;;5.00;;
1370;SDS011;14306;49.942;11.570;2022-12-07T00:28:58;9.73;;;5.80;;
1370;SDS011;14306;49.942;11.570;2022-12-07T00:31:28;8.20;;;5.77;;
1370;SDS011;14306;49.942;11.570;2022-12-07T00:34:01;8.40;;;5.60;;
1370;SDS011;14306;49.942;11.570;2022-12-07T00:36:30;7.43;;;5.20;;
1370;SDS011;14306;49.942;11.570;2022-12-07T00:38:58;8.10;;;5.07;;
1370;SDS011;14306;49.942;11.570;2022-12-07T00:41:27;6.10;;;4.83;;
1370;SDS011;14306;49.942;11.570;2022-12-07T00:43:56;8.27;;;5.20;;
1370;SDS011;14306;49.942;11.570;2022-12-07T00:46:24;8.73;;;5.67;;
1370;SDS011;14306;49.942;11.570;2022-12-07T00:48:53;7.80;;;5.13;;
1370;SDS011;14306;49.942;11.570;2022-12-07T00:51:24;8.80;;;5.67;;
1370;SDS011;14306;49.942;11.570;2022-12-07T00:53:52;7.87;;;5.33;;
1370;SDS011;14306;49.942;11.570;2022-12-07T00:56:21;10.03;;;6.03;;
1370;SDS011;14306;49.942;11.570;2022-12-07T00:58:51;7.30;;;4.73;;
1370;SDS011;14306;49.942;11.570;2022-12-07T01:01:20;6.60;;;4.50;;
1370;SDS011;14306;49.942;11.570;2022-12-07T01:03:49;6.00;;;4.17;;
1370;SDS011;14306;49.942;11.570;2022-12-07T01:06:18;8.20;;;4.90;;
1370;SDS011;14306;49.942;11.570;2022-12-07T01:08:49;9.90;;;6.23;;
1370;SDS011;14306;49.942;11.570;2022-12-07T01:11:18;8.93;;;5.97;;
1370;SDS011;14306;49.942;11.570;2022-12-07T01:13:48;9.93;;;5.40;;
1370;SDS011;14306;49.942;11.570;2022-12-07T01:16:19;7.90;;;5.30;;
1370;SDS011;14306;49.942;11.570;2022-12-07T01:18:54;14.20;;;5.90;;
1370;SDS011;14306;49.942;11.570;2022-12-07T01:21:24;8.63;;;5.97;;
1370;SDS011;14306;49.942;11.570;2022-12-07T01:23:56;7.53;;;5.20;;
1370;SDS011;14306;49.942;11.570;2022-12-07T01:26:25;7.37;;;5.60;;
1370;SDS011;14306;49.942;11.570;2022-12-07T01:28:53;7.13;;;4.47;;
1370;SDS011;14306;49.942;11.570;2022-12-07T01:31:22;7.80;;;4.60;;
1370;SDS011;14306;49.942;11.570;2022-12-07T01:33:52;6.27;;;3.83;;
1370;SDS011;14306;49.942;11.570;2022-12-07T01:36:24;5.60;;;4.87;;
1370;SDS011;14306;49.942;11.570;2022-12-07T01:38:57;8.87;;;5.23;;
1370;SDS011;14306;49.942;11.570;2022-12-07T01:41:28;7.67;;;5.33;;
1370;SDS011;14306;49.942;11.570;2022-12-07T01:44:11;7.70;;;5.00;;
1370;SDS011;14306;49.942;11.570;2022-12-07T01:46:59;8.63;;;5.70;;
1370;SDS011;14306;49.942;11.570;2022-12-07T01:49:29;8.60;;;4.87;;
1370;SDS011;14306;49.942;11.570;2022-12-07T01:52:03;8.70;;;5.27;;
1370;SDS011;14306;49.942;11.570;2022-12-07T01:54:40;8.10;;;5.17;;
1370;SDS011;14306;49.942;11.570;2022-12-07T01:57:09;9.87;;;4.70;;
1370;SDS011;14306;49.942;11.570;2022-12-07T01:59:38;8.30;;;6.00;;
1370;SDS011;14306;49.942;11.570;2022-12-07T02:02:07;11.10;;;7.00;;
1370;SDS011;14306;49.942;11.570;2022-12-07T02:04:43;12.80;;;6.97;;
1370;SDS011;14306;49.942;11.570;2022-12-07T02:07:13;8.20;;;6.10;;
1370;SDS011;14306;49.942;11.570;2022-12-07T02:09:44;10.87;;;6.80;;
1370;SDS011;14306;49.942;11.570;2022-12-07T02:12:12;13.20;;;7.90;;
1370;SDS011;14306;49.942;11.570;2022-12-07T02:14:40;11.33;;;7.20;;
1370;SDS011;14306;49.942;11.570;2022-12-07T02:17:11;12.87;;;8.07;;
1370;SDS011;14306;49.942;11.570;2022-12-07T02:26:01;17.90;;;10.07;;
1370;SDS011;14306;49.942;11.570;2022-12-07T02:28:49;23.70;;;12.17;;
1370;SDS011;14306;49.942;11.570;2022-12-07T02:31:28;18.10;;;11.07;;
1370;SDS011;14306;49.942;11.570;2022-12-07T02:34:01;17.47;;;9.40;;
1370;SDS011;14306;49.942;11.570;2022-12-07T02:36:37;18.10;;;10.80;;
1370;SDS011;14306;49.942;11.570;2022-12-07T02:39:11;17.53;;;9.60;;
1370;SDS011;14306;49.942;11.570;2022-12-07T02:41:46;21.20;;;10.60;;
1370;SDS011;14306;49.942;11.570;2022-12-07T02:44:19;15.07;;;8.97;;
1370;SDS011;14306;49.942;11.570;2022-12-07T02:46:52;18.63;;;10.87;;
1370;SDS011;14306;49.942;11.570;2022-12-07T02:49:24;21.93;;;12.67;;
1370;SDS011;14306;49.942;11.570;2022-12-07T02:51:55;19.53;;;11.53;;
1370;SDS011;14306;49.942;11.570;2022-12-07T02:54:23;19.03;;;11.43;;
1370;SDS011;14306;49.942;11.570;2022-12-07T02:56:52;17.50;;;10.53;;
1370;SDS011;14306;49.942;11.570;2022-12-07T02:59:33;19.30;;;10.50;;
1370;SDS011;14306;49.942;11.570;2022-12-07T03:02:16;15.27;;;9.37;;
1370;SDS011;14306;49.942;11.570;2022-12-07T03:04:53;15.63;;;9.43;;
1370;SDS011;14306;49.942;11.570;2022-12-07T03:07:34;17.40;;;10.27;;
1370;SDS011;14306;49.942;11.570;2022-12-07T03:10:11;17.07;;;9.97;;
1370;SDS011;14306;49.942;11.570;2022-12-07T03:12:46;25.13;;;10.20;;
1370;SDS011;14306;49.942;11.570;2022-12-07T03:15:27;12.13;;;8.40;;
1370;SDS011;14306;49.942;11.570;2022-12-07T03:17:59;14.07;;;8.37;;
1370;SDS011;14306;49.942;11.570;2022-12-07T03:20:30;15.37;;;10.00;;
1370;SDS011;14306;49.942;11.570;2022-12-07T03:23:03;13.97;;;8.50;;
1370;SDS011;14306;49.942;11.570;2022-12-07T03:25:37;12.90;;;8.63;;
1370;SDS011;14306;49.942;11.570;2022-12-07T03:28:08;13.20;;;8.77;;
1370;SDS011;14306;49.942;11.570;2022-12-07T03:30:42;19.20;;;10.13;;
1370;SDS011;14306;49.942;11.570;2022-12-07T03:33:15;14.20;;;9.27;;
1370;SDS011;14306;49.942;11.570;2022-12-07T03:35:52;16.70;;;10.07;;
1370;SDS011;14306;49.942;11.570;2022-12-07T03:38:30;12.87;;;8.43;;
1370;SDS011;14306;49.942;11.570;2022-12-07T03:41:05;15.33;;;9.30;;
1370;SDS011;14306;49.942;11.570;2022-12-07T03:43:36;17.07;;;8.40;;
1370;SDS011;14306;49.942;11.570;2022-12-07T03:46:09;15.07;;;9.70;;
1370;SDS011;14306;49.942;11.570;2022-12-07T03:48:47;17.07;;;10.93;;
1370;SDS011;14306;49.942;11.570;2022-12-07T03:51:26;17.50;;;11.33;;
1370;SDS011;14306;49.942;11.570;2022-12-07T03:53:59;15.63;;;10.70;;
1370;SDS011;14306;49.942;11.570;2022-12-07T03:56:35;18.80;;;10.40;;
1370;SDS011;14306;49.942;11.570;2022-12-07T03:59:05;18.67;;;11.40;;
1370;SDS011;14306;49.942;11.570;2022-12-07T04:01:35;18.10;;;12.20;;
1370;SDS011;14306;49.942;11.570;2022-12-07T04:04:04;15.73;;;9.87;;
1370;SDS011;14306;49.942;11.570;2022-12-07T04:06:32;15.87;;;10.40;;
1370;SDS011;14306;49.942;11.570;2022-12-07T04:09:00;20.77;;;11.80;;
1370;SDS011;14306;49.942;11.570;2022-12-07T04:11:28;19.23;;;11.37;;
1370;SDS011;14306;49.942;11.570;2022-12-07T04:13:57;20.57;;;13.00;;
1370;SDS011;14306;49.942;11.570;2022-12-07T04:16:44;22.93;;;12.70;;
1370;SDS011;14306;49.942;11.570;2022-12-07T04:19:12;16.87;;;11.33;;
1370;SDS011;14306;49.942;11.570;2022-12-07T04:21:40;26.23;;;11.83;;
1370;SDS011;14306;49.942;11.570;2022-12-07T04:24:08;21.63;;;11.97;;
1370;SDS011;14306;49.942;11.570;2022-12-07T04:26:37;23.70;;;13.10;;
1370;SDS011;14306;49.942;11.570;2022-12-07T04:29:05;22.70;;;11.80;;
1370;SDS011;14306;49.942;11.570;2022-12-07T04:31:33;18.50;;;10.77;;
1370;SDS011;14306;49.942;11.570;2022-12-07T04:34:03;18.73;;;10.80;;
1370;SDS011;14306;49.942;11.570;2022-12-07T04:36:32;20.00;;;11.43;;
1370;SDS011;14306;49.942;11.570;2022-12-07T04:39:01;18.40;;;11.00;;
1370;SDS011;14306;49.942;11.570;2022-12-07T04:41:31;18.00;;;10.40;;
1370;SDS011;14306;49.942;11.570;2022-12-07T04:44:01;18.60;;;11.00;;
1370;SDS011;14306;49.942;11.570;2022-12-07T04:46:33;16.43;;;10.70;;
1370;SDS011;14306;49.942;11.570;2022-12-07T04:49:03;18.43;;;10.87;;
1370;SDS011;14306;49.942;11.570;2022-12-07T04:51:31;19.40;;;12.10;;
1370;SDS011;14306;49.942;11.570;2022-12-07T04:53:59;20.67;;;11.80;;
1370;SDS011;14306;49.942;11.570;2022-12-07T04:56:27;17.43;;;10.77;;
1370;SDS011;14306;49.942;11.570;2022-12-07T04:58:55;24.83;;;12.40;;
1370;SDS011;14306;49.942;11.570;2022-12-07T05:01:23;24.80;;;13.60;;
1370;SDS011;14306;49.942;11.570;2022-12-07T05:03:52;19.87;;;11.43;;
1370;SDS011;14306;49.942;11.570;2022-12-07T05:06:22;20.07;;;11.67;;
1370;SDS011;14306;49.942;11.570;2022-12-07T05:08:50;23.20;;;12.97;;
1370;SDS011;14306;49.942;11.570;2022-12-07T05:11:18;21.07;;;12.70;;
1370;SDS011;14306;49.942;11.570;2022-12-07T05:14:07;17.83;;;11.30;;
1370;SDS011;14306;49.942;11.570;2022-12-07T05:16:37;25.07;;;12.90;;
1370;SDS011;14306;49.942;11.570;2022-12-07T05:19:06;19.00;;;12.23;;
1370;SDS011;14306;49.942;11.570;2022-12-07T05:21:36;24.40;;;12.00;;
1370;SDS011;14306;49.942;11.570;2022-12-07T05:24:06;19.83;;;12.33;;
1370;SDS011;14306;49.942;11.570;2022-12-07T05:26:35;21.67;;;11.97;;
1370;SDS011;14306;49.942;11.570;2022-12-07T05:29:03;26.50;;;13.53;;
1370;SDS011;14306;49.942;11.570;2022-12-07T05:31:32;20.80;;;12.60;;
1370;SDS011;14306;49.942;11.570;2022-12-07T05:34:01;19.70;;;12.60;;
1370;SDS011;14306;49.942;11.570;2022-12-07T05:36:30;21.10;;;11.80;;
1370;SDS011;14306;49.942;11.570;2022-12-07T05:38:59;21.60;;;13.27;;
1370;SDS011;14306;49.942;11.570;2022-12-07T05:41:28;22.63;;;13.03;;
1370;SDS011;14306;49.942;11.570;2022-12-07T05:44:14;20.73;;;11.93;;
1370;SDS011;14306;49.942;11.570;2022-12-07T05:46:42;21.17;;;11.63;;
1370;SDS011;14306;49.942;11.570;2022-12-07T05:49:10;22.57;;;12.90;;
1370;SDS011;14306;49.942;11.570;2022-12-07T05:51:39;24.07;;;12.90;;
1370;SDS011;14306;49.942;11.570;2022-12-07T05:54:09;28.83;;;15.20;;
1370;SDS011;14306;49.942;11.570;2022-12-07T05:56:37;20.60;;;13.10;;
1370;SDS011;14306;49.942;11.570;2022-12-07T05:59:06;26.87;;;13.67;;
1370;SDS011;14306;49.942;11.570;2022-12-07T06:01:51;23.07;;;12.30;;
1370;SDS011;14306;49.942;11.570;2022-12-07T06:04:20;25.43;;;13.40;;
1370;SDS011;14306;49.942;11.570;2022-12-07T06:06:49;29.90;;;14.00;;
1370;SDS011;14306;49.942;11.570;2022-12-07T06:09:20;21.73;;;12.50;;
1370;SDS011;14306;49.942;11.570;2022-12-07T06:11:49;23.47;;;13.00;;
1370;SDS011;14306;49.942;11.570;2022-12-07T06:14:35;28.13;;;13.37;;
1370;SDS011;14306;49.942;11.570;2022-12-07T06:17:04;22.63;;;12.87;;
1370;SDS011;14306;49.942;11.570;2022-12-07T06:19:33;26.40;;;12.30;;
1370;SDS011;14306;49.942;11.570;2022-12-07T06:22:02;27.57;;;13.57;;
1370;SDS011;14306;49.942;11.570;2022-12-07T06:24:32;22.77;;;12.40;;
1370;SDS011;14306;49.942;11.570;2022-12-07T06:27:01;21.10;;;12.30;;
1370;SDS011;14306;49.942;11.570;2022-12-07T06:29:30;25.27;;;13.10;;
1370;SDS011;14306;49.942;11.570;2022-12-07T06:31:58;25.50;;;13.03;;
1370;SDS011;14306;49.942;11.570;2022-12-07T06:34:26;25.30;;;12.20;;
1370;SDS011;14306;49.942;11.570;2022-12-07T06:36:55;26.23;;;13.27;;
1370;SDS011;14306;49.942;11.570;2022-12-07T06:39:24;22.80;;;13.60;;
1370;SDS011;14306;49.942;11.570;2022-12-07T06:41:56;22.40;;;13.33;;
1370;SDS011;14306;49.942;11.570;2022-12-07T06:44:25;22.20;;;12.07;;
1370;SDS011;14306;49.942;11.570;2022-12-07T06:46:53;19.73;;;11.83;;
1370;SDS011;14306;49.942;11.570;2022-12-07T06:49:42;18.80;;;11.50;;
1370;SDS011;14306;49.942;11.570;2022-12-07T06:52:10;22.23;;;11.20;;
1370;SDS011;14306;49.942;11.570;2022-12-07T06:54:38;24.33;;;12.70;;
1370;SDS011;14306;49.942;11.570;2022-12-07T06:57:08;23.50;;;12.73;;
1370;SDS011;14306;49.942;11.570;2022-12-07T06:59:36;26.27;;;13.87;;
1370;SDS011;14306;49.942;11.570;2022-12-07T07:02:05;21.73;;;12.77;;
1370;SDS011;14306;49.942;11.570;2022-12-07T07:04:33;20.53;;;13.23;;
1370;SDS011;14306;49.942;11.570;2022-12-07T07:07:02;21.00;;;13.23;;
1370;SDS011;14306;49.942;11.570;2022-12-07T07:09:30;23.30;;;12.43;;
1370;SDS011;14306;49.942;11.570;2022-12-07T07:11:58;29.80;;;15.40;;
1370;SDS011;14306;49.942;11.570;2022-12-07T07:14:27;29.67;;;16.40;;
1370;SDS011;14306;49.942;11.570;2022-12-07T07:16:56;28.20;;;16.97;;
1370;SDS011;14306;49.942;11.570;2022-12-07T07:19:25;24.30;;;14.70;;
1370;SDS011;14306;49.942;11.570;2022-12-07T07:21:54;25.30;;;14.17;;
1370;SDS011;14306;49.942;11.570;2022-12-07T07:24:22;24.83;;;15.03;;
1370;SDS011;14306;49.942;11.570;2022-12-07T07:26:50;33.73;;;16.17;;
1370;SDS011;14306;49.942;11.570;2022-12-07T07:29:19;23.80;;;14.43;;
1370;SDS011;14306;49.942;11.570;2022-12-07T07:31:48;27.20;;;15.60;;
1370;SDS011;14306;49.942;11.570;2022-12-07T07:34:16;26.50;;;14.13;;
1370;SDS011;14306;49.942;11.570;2022-12-07T07:36:45;28.60;;;15.20;;
1370;SDS011;14306;49.942;11.570;2022-12-07T07:39:13;27.83;;;14.70;;
1370;SDS011;14306;49.942;11.570;2022-12-07T07:41:42;26.93;;;14.97;;
1370;SDS011;14306;49.942;11.570;2022-12-07T07:44:10;26.20;;;14.50;;
1370;SDS011;14306;49.942;11.570;2022-12-07T07:46:39;26.37;;;14.47;;
1370;SDS011;14306;49.942;11.570;2022-12-07T07:49:08;28.27;;;16.13;;
1370;SDS011;14306;49.942;11.570;2022-12-07T07:51:37;27.30;;;15.30;;
1370;SDS011;14306;49.942;11.570;2022-12-07T07:54:05;30.43;;;14.90;;
1370;SDS011;14306;49.942;11.570;2022-12-07T07:56:34;27.53;;;15.27;;
1370;SDS011;14306;49.942;11.570;2022-12-07T07:59:02;24.43;;;13.80;;
1370;SDS011;14306;49.942;11.570;2022-12-07T08:01:30;28.97;;;14.03;;
1370;SDS011;14306;49.942;11.570;2022-12-07T08:03:58;23.77;;;14.50;;
1370;SDS011;14306;49.942;11.570;2022-12-07T08:06:28;33.60;;;15.67;;
1370;SDS011;14306;49.942;11.570;2022-12-07T08:08:58;29.83;;;14.57;;
1370;SDS011;14306;49.942;11.570;2022-12-07T08:11:26;28.90;;;15.70;;
1370;SDS011;14306;49.942;11.570;2022-12-07T08:13:54;26.30;;;16.40;;
1370;SDS011;14306;49.942;11.570;2022-12-07T08:16:23;28.20;;;16.87;;
1370;SDS011;14306;49.942;11.570;2022-12-07T08:18:51;24.80;;;14.97;;
1370;SDS011;14306;49.942;11.570;2022-12-07T08:21:20;30.60;;;16.70;;
1370;SDS011;14306;49.942;11.570;2022-12-07T08:23:52;27.50;;;15.87;;
1370;SDS011;14306;49.942;11.570;2022-12-07T08:26:21;30.13;;;16.30;;
1370;SDS011;14306;49.942;11.570;2022-12-07T08:28:49;28.83;;;15.43;;
1370;SDS011;14306;49.942;11.570;2022-12-07T08:31:18;23.80;;;13.57;;
1370;SDS011;14306;49.942;11.570;2022-12-07T08:33:47;25.47;;;13.70;;
1370;SDS011;14306;49.942;11.570;2022-12-07T08:36:16;22.17;;;14.00;;
1370;SDS011;14306;49.942;11.570;2022-12-07T08:38:44;24.70;;;14.17;;
1370;SDS011;14306;49.942;11.570;2022-12-07T08:41:34;23.77;;;13.37;;
1370;SDS011;14306;49.942;11.570;2022-12-07T08:44:03;23.63;;;13.20;;
1370;SDS011;14306;49.942;11.570;2022-12-07T08:46:32;23.10;;;12.80;;
1370;SDS011;14306;49.942;11.570;2022-12-07T08:49:05;18.10;;;12.63;;
1370;SDS011;14306;49.942;11.570;2022-12-07T08:51:37;22.73;;;14.20;;
1370;SDS011;14306;49.942;11.570;2022-12-07T08:54:07;22.07;;;15.00;;
1370;SDS011;14306;49.942;11.570;2022-12-07T08:56:40;25.20;;;14.17;;
1370;SDS011;14306;49.942;11.570;2022-12-07T08:59:08;23.23;;;13.07;;
1370;SDS011;14306;49.942;11.570;2022-12-07T09:01:38;28.80;;;14.70;;
1370;SDS011;14306;49.942;11.570;2022-12-07T09:04:06;23.43;;;13.30;;
1370;SDS011;14306;49.942;11.570;2022-12-07T09:06:35;24.00;;;14.97;;
1370;SDS011;14306;49.942;11.570;2022-12-07T09:09:04;22.87;;;14.17;;
1370;SDS011;14306;49.942;11.570;2022-12-07T09:11:32;24.10;;;13.73;;
1370;SDS011;14306;49.942;11.570;2022-12-07T09:14:02;24.10;;;14.80;;
1370;SDS011;14306;49.942;11.570;2022-12-07T09:16:30;24.80;;;13.00;;
1370;SDS011;14306;49.942;11.570;2022-12-07T09:18:58;28.37;;;13.97;;
1370;SDS011;14306;49.942;11.570;2022-12-07T09:21:27;26.80;;;14.50;;
1370;SDS011;14306;49.942;11.570;2022-12-07T09:23:55;29.43;;;16.03;;
1370;SDS011;14306;49.942;11.570;2022-12-07T09:26:24;28.00;;;15.70;;
1370;SDS011;14306;49.942;11.570;2022-12-07T09:28:52;25.40;;;13.83;;
1370;SDS011;14306;49.942;11.570;2022-12-07T09:31:21;26.60;;;14.07;;
1370;SDS011;14306;49.942;11.570;2022-12-07T09:33:54;31.30;;;15.60;;
1370;SDS011;14306;49.942;11.570;2022-12-07T09:36:23;29.37;;;16.30;;
1370;SDS011;14306;49.942;11.570;2022-12-07T09:38:52;31.53;;;15.77;;
1370;SDS011;14306;49.942;11.570;2022-12-07T09:41:20;25.27;;;14.27;;
1370;SDS011;14306;49.942;11.570;2022-12-07T09:43:50;25.43;;;14.30;;
1370;SDS011;14306;49.942;11.570;2022-12-07T09:46:21;22.90;;;12.97;;
1370;SDS011;14306;49.942;11.570;2022-12-07T09:48:49;24.77;;;13.80;;
1370;SDS011;14306;49.942;11.570;2022-12-07T09:51:19;28.10;;;15.00;;
1370;SDS011;14306;49.942;11.570;2022-12-07T09:53:51;27.63;;;15.37;;
1370;SDS011;14306;49.942;11.570;2022-12-07T09:56:21;27.40;;;13.77;;
1370;SDS011;14306;49.942;11.570;2022-12-07T09:58:51;28.20;;;15.93;;
1370;SDS011;14306;49.942;11.570;2022-12-07T10:01:28;26.47;;;16.23;;
1370;SDS011;14306;49.942;11.570;2022-12-07T10:04:00;24.67;;;14.33;;
1370;SDS011;14306;49.942;11.570;2022-12-07T10:06:34;29.70;;;15.00;;
1370;SDS011;14306;49.942;11.570;2022-12-07T10:09:07;24.77;;;15.10;;
1370;SDS011;14306;49.942;11.570;2022-12-07T10:14:27;25.13;;;14.80;;
1370;SDS011;14306;49.942;11.570;2022-12-07T10:20:14;19.43;;;12.27;;
1370;SDS011;14306;49.942;11.570;2022-12-07T10:22:56;23.03;;;13.30;;
1370;SDS011;14306;49.942;11.570;2022-12-07T10:25:28;26.63;;;13.10;;
1370;SDS011;14306;49.942;11.570;2022-12-07T10:27:59;23.17;;;12.97;;
1370;SDS011;14306;49.942;11.570;2022-12-07T10:30:30;31.00;;;13.10;;
1370;SDS011;14306;49.942;11.570;2022-12-07T10:33:00;20.00;;;11.40;;
1370;SDS011;14306;49.942;11.570;2022-12-07T10:35:29;22.27;;;12.53;;
1370;SDS011;14306;49.942;11.570;2022-12-07T10:37:59;25.57;;;11.97;;
1370;SDS011;14306;49.942;11.570;2022-12-07T10:40:29;22.23;;;12.47;;
1370;SDS011;14306;49.942;11.570;2022-12-07T10:43:01;23.20;;;13.37;;
1370;SDS011;14306;49.942;11.570;2022-12-07T10:45:44;22.87;;;12.10;;
1370;SDS011;14306;49.942;11.570;2022-12-07T10:48:42;18.17;;;11.67;;
1370;SDS011;14306;49.942;11.570;2022-12-07T10:51:19;23.47;;;12.60;;
1370;SDS011;14306;49.942;11.570;2022-12-07T10:53:56;20.77;;;11.97;;
1370;SDS011;14306;49.942;11.570;2022-12-07T10:56:42;22.03;;;11.70;;
1370;SDS011;14306;49.942;11.570;2022-12-07T11:02:34;24.20;;;13.03;;
1370;SDS011;14306;49.942;11.570;2022-12-07T11:05:23;20.57;;;12.20;;
1370;SDS011;14306;49.942;11.570;2022-12-07T11:08:00;19.27;;;12.13;;
1370;SDS011;14306;49.942;11.570;2022-12-07T11:10:39;21.90;;;13.67;;
1370;SDS011;14306;49.942;11.570;2022-12-07T11:13:16;19.67;;;12.43;;
1370;SDS011;14306;49.942;11.570;2022-12-07T11:16:01;24.50;;;13.40;;
1370;SDS011;14306;49.942;11.570;2022-12-07T11:18:36;22.20;;;13.97;;
1370;SDS011;14306;49.942;11.570;2022-12-07T11:21:14;25.50;;;13.20;;
1370;SDS011;14306;49.942;11.570;2022-12-07T11:23:49;23.77;;;13.67;;
1370;SDS011;14306;49.942;11.570;2022-12-07T11:26:29;23.03;;;13.07;;
1370;SDS011;14306;49.942;11.570;2022-12-07T11:32:30;24.27;;;13.73;;
1370;SDS011;14306;49.942;11.570;2022-12-07T11:35:14;25.50;;;13.50;;
1370;SDS011;14306;49.942;11.570;2022-12-07T11:37:54;24.90;;;12.50;;
1370;SDS011;14306;49.942;11.570;2022-12-07T11:40:26;17.73;;;11.60;;
1370;SDS011;14306;49.942;11.570;2022-12-07T11:43:01;19.97;;;11.37;;
1370;SDS011;14306;49.942;11.570;2022-12-07T11:45:35;16.63;;;10.93;;
1370;SDS011;14306;49.942;11.570;2022-12-07T11:48:10;18.07;;;10.40;;
1370;SDS011;14306;49.942;11.570;2022-12-07T11:50:45;17.37;;;11.87;;
1370;SDS011;14306;49.942;11.570;2022-12-07T11:53:18;17.70;;;11.40;;
1370;SDS011;14306;49.942;11.570;2022-12-07T11:55:52;14.63;;;9.53;;
1370;SDS011;14306;49.942;11.570;2022-12-07T12:01:14;11.50;;;9.00;;
1370;SDS011;14306;49.942;11.570;2022-12-07T12:03:52;11.80;;;7.30;;
1370;SDS011;14306;49.942;11.570;2022-12-07T12:06:24;13.10;;;8.23;;
1370;SDS011;14306;49.942;11.570;2022-12-07T12:08:55;16.53;;;10.37;;
1370;SDS011;14306;49.942;11.570;2022-12-07T12:11:59;14.73;;;9.30;;
1370;SDS011;14306;49.942;11.570;2022-12-07T12:14:59;13.40;;;9.47;;
1370;SDS011;14306;49.942;11.570;2022-12-07T12:17:54;12.77;;;7.00;;
1370;SDS011;14306;49.942;11.570;2022-12-07T12:20:35;12.43;;;7.53;;
1370;SDS011;14306;49.942;11.570;2022-12-07T12:23:10;14.00;;;7.70;;
1370;SDS011;14306;49.942;11.570;2022-12-07T12:25:43;9.77;;;7.53;;
1370;SDS011;14306;49.942;11.570;2022-12-07T12:28:19;12.77;;;8.63;;
1370;SDS011;14306;49.942;11.570;2022-12-07T12:31:09;10.87;;;7.70;;
1370;SDS011;14306;49.942;11.570;2022-12-07T12:33:42;11.73;;;7.13;;
1370;SDS011;14306;49.942;11.570;2022-12-07T12:36:20;18.73;;;8.77;;
1370;SDS011;14306;49.942;11.570;2022-12-07T12:39:08;10.77;;;8.07;;
1370;SDS011;14306;49.942;11.570;2022-12-07T12:50:27;15.10;;;8.80;;
1370;SDS011;14306;49.942;11.570;2022-12-07T12:53:04;12.10;;;7.40;;
1370;SDS011;14306;49.942;11.570;2022-12-07T12:55:53;12.80;;;7.07;;
1370;SDS011;14306;49.942;11.570;2022-12-07T12:58:40;8.20;;;6.40;;
1370;SDS011;14306;49.942;11.570;2022-12-07T13:10:37;10.50;;;6.97;;
1370;SDS011;14306;49.942;11.570;2022-12-07T13:25:18;15.03;;;6.60;;
1370;SDS011;14306;49.942;11.570;2022-12-07T13:27:54;14.93;;;8.40;;
1370;SDS011;14306;49.942;11.570;2022-12-07T13:30:25;10.70;;;6.90;;
1370;SDS011;14306;49.942;11.570;2022-12-07T13:32:57;11.20;;;7.60;;
1370;SDS011;14306;49.942;11.570;2022-12-07T13:35:30;9.73;;;6.40;;
1370;SDS011;14306;49.942;11.570;2022-12-07T13:38:04;11.00;;;7.47;;
1370;SDS011;14306;49.942;11.570;2022-12-07T13:40:42;12.17;;;6.77;;
1370;SDS011;14306;49.942;11.570;2022-12-07T13:43:28;10.67;;;6.70;;
1370;SDS011;14306;49.942;11.570;2022-12-07T13:45:57;8.70;;;5.90;;
1370;SDS011;14306;49.942;11.570;2022-12-07T13:48:30;12.60;;;7.50;;
1370;SDS011;14306;49.942;11.570;2022-12-07T13:51:01;16.63;;;10.27;;
1370;SDS011;14306;49.942;11.570;2022-12-07T13:53:31;9.20;;;6.50;;
1370;SDS011;14306;49.942;11.570;2022-12-07T13:56:00;13.20;;;7.63;;
1370;SDS011;14306;49.942;11.570;2022-12-07T13:58:30;12.60;;;7.60;;
1370;SDS011;14306;49.942;11.570;2022-12-07T14:01:01;9.83;;;6.80;;
1370;SDS011;14306;49.942;11.570;2022-12-07T14:03:31;14.23;;;6.67;;
1370;SDS011;14306;49.942;11.570;2022-12-07T14:06:03;11.87;;;7.60;;
1370;SDS011;14306;49.942;11.570;2022-12-07T14:08:42;13.10;;;7.43;;
1370;SDS011;14306;49.942;11.570;2022-12-07T14:11:13;9.23;;;5.50;;
1370;SDS011;14306;49.942;11.570;2022-12-07T14:13:50;10.60;;;7.67;;
1370;SDS011;14306;49.942;11.570;2022-12-07T14:16:26;9.83;;;6.40;;
1370;SDS011;14306;49.942;11.570;2022-12-07T14:18:58;10.00;;;6.50;;
1370;SDS011;14306;49.942;11.570;2022-12-07T14:21:28;10.03;;;6.37;;
1370;SDS011;14306;49.942;11.570;2022-12-07T14:26:48;9.07;;;6.57;;
1370;SDS011;14306;49.942;11.570;2022-12-07T14:29:31;8.60;;;5.90;;
1370;SDS011;14306;49.942;11.570;2022-12-07T14:32:13;10.53;;;6.33;;
1370;SDS011;14306;49.942;11.570;2022-12-07T14:34:57;9.50;;;5.60;;
1370;SDS011;14306;49.942;11.570;2022-12-07T14:37:29;13.63;;;7.10;;
1370;SDS011;14306;49.942;11.570;2022-12-07T14:39:58;8.80;;;6.13;;
1370;SDS011;14306;49.942;11.570;2022-12-07T14:42:27;8.70;;;6.67;;
1370;SDS011;14306;49.942;11.570;2022-12-07T14:44:58;8.47;;;6.20;;
1370;SDS011;14306;49.942;11.570;2022-12-07T14:47:27;13.03;;;7.03;;
1370;SDS011;14306;49.942;11.570;2022-12-07T14:50:17;9.97;;;6.83;;
1370;SDS011;14306;49.942;11.570;2022-12-07T14:52:48;12.23;;;6.30;;
1370;SDS011;14306;49.942;11.570;2022-12-07T14:55:40;11.67;;;6.83;;
1370;SDS011;14306;49.942;11.570;2022-12-07T14:58:11;9.87;;;6.63;;
1370;SDS011;14306;49.942;11.570;2022-12-07T15:00:41;11.70;;;6.13;;
1370;SDS011;14306;49.942;11.570;2022-12-07T15:03:10;12.23;;;8.00;;
1370;SDS011;14306;49.942;11.570;2022-12-07T15:05:41;11.73;;;7.40;;
1370;SDS011;14306;49.942;11.570;2022-12-07T15:08:10;8.53;;;6.70;;
1370;SDS011;14306;49.942;11.570;2022-12-07T15:10:40;12.40;;;7.30;;
1370;SDS011;14306;49.942;11.570;2022-12-07T15:13:09;11.77;;;7.00;;
1370;SDS011;14306;49.942;11.570;2022-12-07T15:15:54;12.27;;;7.93;;
1370;SDS011;14306;49.942;11.570;2022-12-07T15:18:23;17.60;;;8.33;;
1370;SDS011;14306;49.942;11.570;2022-12-07T15:20:53;11.63;;;6.60;;
1370;SDS011;14306;49.942;11.570;2022-12-07T15:23:22;11.87;;;7.70;;
1370;SDS011;14306;49.942;11.570;2022-12-07T15:25:50;13.80;;;8.13;;
1370;SDS011;14306;49.942;11.570;2022-12-07T15:28:19;12.00;;;7.97;;
1370;SDS011;14306;49.942;11.570;2022-12-07T15:30:47;17.60;;;9.07;;
1370;SDS011;14306;49.942;11.570;2022-12-07T15:33:16;14.33;;;7.90;;
1370;SDS011;14306;49.942;11.570;2022-12-07T15:35:44;11.93;;;8.80;;
1370;SDS011;14306;49.942;11.570;2022-12-07T15:38:15;16.23;;;7.97;;
1370;SDS011;14306;49.942;11.570;2022-12-07T15:41:03;12.73;;;8.23;;
1370;SDS011;14306;49.942;11.570;2022-12-07T15:43:32;13.83;;;8.33;;
1370;SDS011;14306;49.942;11.570;2022-12-07T15:46:18;16.50;;;9.10;;
1370;SDS011;14306;49.942;11.570;2022-12-07T15:48:47;15.03;;;8.60;;
1370;SDS011;14306;49.942;11.570;2022-12-07T15:51:15;18.47;;;10.50;;
1370;SDS011;14306;49.942;11.570;2022-12-07T15:53:51;12.87;;;8.93;;